Marchen Maersk — OUIY2 — position and weather

sailwx.info

Track history (hours):
 
Tides and Currents Weather Stations Pressure Air Temp Water Temp Dewpoint Dewpoint Depression Visibility Wind Speed Wind Dir Waves Ship Positions

Marchen Maersk

Last reported at 2015-Jan-06 05:28 UTC. Time now 2015-Jan-29 04:21 UTC.
Position N 23°46' E 118°28'.
Warning: this ship's position is 22 days out of date.

Length 367 m; draft 11.8 m.

Type: Cargo ship. MMSI: 220594000.

Date/timePositionNaut miles runAvg speedWind from/ knotsBaromVisibWave heightAir tempDewpointWater temp
2015-Jan-06 05:28N 23°46' E 118°28'1111.2
2015-Jan-06 04:29N 23°40' E 118°18'2712.3
2015-Jan-06 02:17N 23°26' E 117°53'1013.2
2015-Jan-06 01:32N 23°21' E 117°44'5011.8
2015-Jan-05 21:19N 22°51' E 117°00'1810.5
2015-Jan-05 19:33N 22°40' E 116°44'14810.4
2015-Jan-05 05:20N 22°16' E 114°06'4 4.0
2015-Jan-05 04:27N 22°20' E 114°07'0 0.0
2015-Jan-05 03:15N 22°20' E 114°07'0 0.0
2015-Jan-05 02:24N 22°20' E 114°07'0 0.0
2015-Jan-05 01:27N 22°20' E 114°07'0 0.0
2015-Jan-05 00:33N 22°20' E 114°07'0 0.0
2015-Jan-04 23:30N 22°20' E 114°07'0 0.0
2015-Jan-04 22:33N 22°20' E 114°07'0 0.0
2015-Jan-04 21:33N 22°20' E 114°07'0 0.0
2015-Jan-04 20:24N 22°20' E 114°07'0 0.0
2015-Jan-04 19:27N 22°20' E 114°07'0 0.0
2015-Jan-04 18:27N 22°20' E 114°07'0 0.0
2015-Jan-04 17:33N 22°20' E 114°07'0 0.0
2015-Jan-04 16:27N 22°20' E 114°07'0 0.0
2015-Jan-04 15:30N 22°20' E 114°07'1 0.8
2015-Jan-04 14:33N 22°19' E 114°07'7 6.6
2015-Jan-04 13:29N 22°13' E 114°10'8 8.1
2015-Jan-04 12:30N 22°09' E 114°18'1010.7
2015-Jan-04 11:33N 22°13' E 114°27'22 0.9
2015-Jan-03 09:23N 22°34' E 114°19'18 9.5
2015-Jan-03 07:27N 22°17' E 114°28'1513.8
2015-Jan-03 06:21N 22°07' E 114°15'1815.0
2015-Jan-03 05:11N 22°06' E 113°56'5 8.3
2015-Jan-03 04:32N 22°08' E 113°51'1514.8
2015-Jan-03 03:33N 22°22' E 113°47'1514.2
2015-Jan-03 02:30N 22°37' E 113°42'9 0.7
2015-Jan-02 13:10N 22°28' E 113°45'813.1
2015-Jan-02 12:33N 22°20' E 113°48'8 8.5
2015-Jan-02 11:33N 22°12' E 113°50'1010.1
2015-Jan-02 10:33N 22°02' E 113°51'1813.5
2015-Jan-02 09:12N 21°44' E 113°45'  
Track history (hours):
 
Tides and Currents Weather Stations Pressure Air Temp Water Temp Dewpoint Dewpoint Depression Visibility Wind Speed Wind Dir Waves Ship Positions

Marchen Maersk

Last reported at 2015-Jan-06 05:28 UTC. Time now 2015-Jan-29 04:21 UTC.
Position N 23°46' E 118°28'.
Warning: this ship's position is 22 days out of date.

Length 367 m; draft 11.8 m.

Type: Cargo ship. MMSI: 220594000.

Date/timePositionNaut miles runAvg speedWind from/ knotsBaromVisibWave heightAir tempDewpointWater temp
2015-Jan-06 05:28N 23°46' E 118°28'1111.2
2015-Jan-06 04:29N 23°40' E 118°18'2712.3
2015-Jan-06 02:17N 23°26' E 117°53'1013.2
2015-Jan-06 01:32N 23°21' E 117°44'5011.8
2015-Jan-05 21:19N 22°51' E 117°00'1810.5
2015-Jan-05 19:33N 22°40' E 116°44'14810.4
2015-Jan-05 05:20N 22°16' E 114°06'4 4.0
2015-Jan-05 04:27N 22°20' E 114°07'0 0.0
2015-Jan-05 03:15N 22°20' E 114°07'0 0.0
2015-Jan-05 02:24N 22°20' E 114°07'0 0.0
2015-Jan-05 01:27N 22°20' E 114°07'0 0.0
2015-Jan-05 00:33N 22°20' E 114°07'0 0.0
2015-Jan-04 23:30N 22°20' E 114°07'0 0.0
2015-Jan-04 22:33N 22°20' E 114°07'0 0.0
2015-Jan-04 21:33N 22°20' E 114°07'0 0.0
2015-Jan-04 20:24N 22°20' E 114°07'0 0.0
2015-Jan-04 19:27N 22°20' E 114°07'0 0.0
2015-Jan-04 18:27N 22°20' E 114°07'0 0.0
2015-Jan-04 17:33N 22°20' E 114°07'0 0.0
2015-Jan-04 16:27N 22°20' E 114°07'0 0.0
2015-Jan-04 15:30N 22°20' E 114°07'1 0.8
2015-Jan-04 14:33N 22°19' E 114°07'7 6.6
2015-Jan-04 13:29N 22°13' E 114°10'8 8.1
2015-Jan-04 12:30N 22°09' E 114°18'1010.7
2015-Jan-04 11:33N 22°13' E 114°27'22 0.9
2015-Jan-03 09:23N 22°34' E 114°19'18 9.5
2015-Jan-03 07:27N 22°17' E 114°28'1513.8
2015-Jan-03 06:21N 22°07' E 114°15'1815.0
2015-Jan-03 05:11N 22°06' E 113°56'5 8.3
2015-Jan-03 04:32N 22°08' E 113°51'1514.8
2015-Jan-03 03:33N 22°22' E 113°47'1514.2
2015-Jan-03 02:30N 22°37' E 113°42'9 0.7
2015-Jan-02 13:10N 22°28' E 113°45'813.1
2015-Jan-02 12:33N 22°20' E 113°48'8 8.5
2015-Jan-02 11:33N 22°12' E 113°50'1010.1
2015-Jan-02 10:33N 22°02' E 113°51'1813.5
2015-Jan-02 09:12N 21°44' E 113°45'  

Dump ship's entire track history